createdAt,value
2022-09-06T00:02:51.211Z,17.61
2022-09-06T00:07:53.760Z,17.53
2022-09-06T00:12:56.208Z,17.48
2022-09-06T00:17:58.817Z,17.43
2022-09-06T00:23:01.464Z,17.38
2022-09-06T00:28:03.941Z,17.34
2022-09-06T00:33:06.382Z,17.33
2022-09-06T00:38:09.091Z,17.3
2022-09-06T00:43:11.567Z,17.31
2022-09-06T00:48:14.262Z,17.3
2022-09-06T00:53:17.025Z,17.28
2022-09-06T00:58:19.799Z,17.23
2022-09-06T01:03:22.460Z,17.21
2022-09-06T01:08:25.120Z,17.13
2022-09-06T01:13:27.541Z,17.06
2022-09-06T01:18:30.128Z,17.02
2022-09-06T01:23:32.734Z,16.94
2022-09-06T01:28:35.463Z,16.9
2022-09-06T01:33:38.063Z,16.85
2022-09-06T01:38:40.683Z,16.81
2022-09-06T01:43:43.060Z,16.73
2022-09-06T01:48:45.914Z,16.67
2022-09-06T01:53:47.774Z,16.64
2022-09-06T01:58:50.426Z,16.6
2022-09-06T02:03:52.984Z,16.6
2022-09-06T02:08:55.733Z,16.56
2022-09-06T02:13:58.437Z,16.5
2022-09-06T02:19:00.945Z,16.5
2022-09-06T02:24:03.665Z,16.47
2022-09-06T02:29:06.236Z,16.44
2022-09-06T02:34:08.991Z,16.36
2022-09-06T02:39:11.496Z,16.32
2022-09-06T02:44:14.162Z,16.27
2022-09-06T02:49:16.859Z,16.26
2022-09-06T02:54:19.549Z,16.24
2022-09-06T03:04:24.920Z,16.18
2022-09-06T03:09:27.489Z,16.11
2022-09-06T03:19:32.886Z,16.16
2022-09-06T03:24:35.567Z,16.17
2022-09-06T03:29:37.829Z,16.11
2022-09-06T03:34:40.737Z,16.02
2022-09-06T03:39:43.320Z,15.98
2022-09-06T03:44:45.913Z,15.95
2022-09-06T03:49:48.580Z,15.83
2022-09-06T03:54:51.086Z,15.74
2022-09-06T04:04:59.406Z,15.66
2022-09-06T04:10:01.847Z,15.61
2022-09-06T04:15:04.427Z,15.6
2022-09-06T04:20:07.090Z,15.54
2022-09-06T04:35:15.408Z,15.46
2022-09-06T04:40:18.304Z,15.45
2022-09-06T04:45:20.923Z,15.45
2022-09-06T04:50:26.100Z,15.46
2022-09-06T05:00:31.287Z,15.49
2022-09-06T05:05:34.065Z,15.61
2022-09-06T05:10:36.892Z,15.57
2022-09-06T05:15:39.676Z,15.67
2022-09-06T05:20:42.322Z,15.87
2022-09-06T05:25:45.093Z,15.96
2022-09-06T05:30:47.906Z,16.03
2022-09-06T05:35:50.769Z,16.29
2022-09-06T05:40:53.570Z,16.58
2022-09-06T05:45:56.320Z,16.9
2022-09-06T05:56:02.132Z,16.98
2022-09-06T06:06:08.277Z,16.76
2022-09-06T06:16:13.864Z,16.86
2022-09-06T06:21:16.432Z,17.03
2022-09-06T06:26:19.239Z,17.05
2022-09-06T06:36:25.274Z,17.64
2022-09-06T06:41:27.942Z,18.1
2022-09-06T06:46:30.615Z,18.17
2022-09-06T06:51:33.601Z,18.51
2022-09-06T06:56:36.369Z,18.64
2022-09-06T07:11:44.922Z,19.32
2022-09-06T07:16:47.755Z,19.49
2022-09-06T07:21:50.506Z,19.07
2022-09-06T07:32:13.656Z,19.17
2022-09-06T07:37:01.183Z,19.06
2022-09-06T07:42:03.949Z,18.66
2022-09-06T07:57:12.299Z,19.43
2022-09-06T08:02:14.924Z,18.66
2022-09-06T08:12:20.385Z,19.05
2022-09-06T08:17:23.119Z,19.36
2022-09-06T08:22:25.780Z,19.5
2022-09-06T08:27:28.711Z,19.83
2022-09-06T08:37:34.048Z,20.15
2022-09-06T08:42:36.685Z,20.12
2022-09-06T08:47:39.567Z,20.35
2022-09-06T08:57:44.983Z,20.27
2022-09-06T09:07:50.321Z,20.34
2022-09-06T09:12:53.061Z,20.95
2022-09-06T09:17:55.885Z,21.08
2022-09-06T09:22:58.630Z,21
2022-09-06T09:28:01.342Z,21.2
2022-09-06T09:33:03.965Z,21.8
2022-09-06T09:38:09.432Z,21.26
2022-09-06T09:43:09.395Z,21.21
2022-09-06T09:48:12.329Z,21.21
2022-09-06T09:58:17.768Z,21.08
2022-09-06T10:08:23.156Z,21.3
2022-09-06T10:13:25.947Z,21.34
2022-09-06T10:18:29.055Z,21.58
2022-09-06T10:33:36.702Z,22.39
2022-09-06T10:38:39.609Z,22.59
2022-09-06T10:43:42.307Z,22.51
2022-09-06T10:48:47.843Z,22.23
2022-09-06T10:53:53.500Z,22.28
2022-09-06T11:04:01.835Z,23.04
2022-09-06T11:09:01.922Z,23.35
2022-09-06T11:14:05.707Z,23.46
2022-09-06T11:19:07.537Z,23.57
2022-09-06T11:24:10.272Z,22.86
2022-09-06T11:29:12.950Z,22.67
2022-09-06T11:34:15.657Z,22.92
2022-09-06T11:39:18.468Z,22.63
2022-09-06T11:44:20.944Z,22.51
2022-09-06T11:49:23.759Z,22.58
2022-09-06T11:54:26.478Z,22.83
2022-09-06T11:59:29.224Z,22.75
2022-09-06T12:04:32.061Z,23.18
2022-09-06T12:09:34.919Z,23.35
2022-09-06T12:14:37.650Z,22.97
2022-09-06T12:19:44.020Z,23.24
2022-09-06T12:24:43.099Z,23.28
2022-09-06T12:29:45.665Z,23.49
2022-09-06T12:39:51.293Z,24.09
2022-09-06T12:44:54.130Z,23.83
2022-09-06T12:49:56.650Z,23.92
2022-09-06T12:54:59.765Z,24.16
2022-09-06T13:00:02.506Z,23.94
2022-09-06T13:05:05.006Z,24.1
2022-09-06T13:10:07.772Z,24.05
2022-09-06T13:15:10.410Z,24.24
2022-09-06T13:20:13.155Z,24.27
2022-09-06T13:25:18.616Z,24.5
2022-09-06T13:30:18.786Z,24.47
2022-09-06T13:35:21.475Z,24.99
2022-09-06T13:40:24.037Z,24.59
2022-09-06T13:45:26.927Z,24.76
2022-09-06T13:50:29.396Z,24.57
2022-09-06T13:55:32.079Z,24.4
2022-09-06T14:00:34.582Z,24.79
2022-09-06T14:05:37.397Z,24.89
2022-09-06T14:10:39.988Z,24.48
2022-09-06T14:15:43.355Z,24.42
2022-09-06T14:20:46.074Z,24.34
2022-09-06T14:25:48.560Z,24.5
2022-09-06T14:30:51.706Z,24.38
2022-09-06T14:35:54.799Z,24.26
2022-09-06T14:40:57.437Z,23.84
2022-09-06T14:46:00.358Z,23.77
2022-09-06T14:51:03.186Z,24.04
2022-09-06T14:56:05.896Z,23.81
2022-09-06T15:01:08.634Z,23.74
2022-09-06T15:06:11.277Z,23.44
2022-09-06T15:11:13.918Z,23.41
2022-09-06T15:16:16.596Z,23.34
2022-09-06T15:21:19.419Z,23.4
2022-09-06T15:26:22.093Z,23.27
2022-09-06T15:31:24.981Z,23.13
2022-09-06T15:36:27.683Z,22.97
2022-09-06T15:41:30.217Z,23.09
2022-09-06T15:46:32.963Z,23.14
2022-09-06T15:51:35.478Z,23.18
2022-09-06T15:56:38.287Z,23.16
2022-09-06T16:01:41.246Z,23.16
2022-09-06T16:11:46.445Z,22.96
2022-09-06T16:16:55.252Z,22.96
2022-09-06T16:21:54.964Z,22.89
2022-09-06T16:26:57.712Z,22.83
2022-09-06T16:32:00.439Z,22.86
2022-09-06T16:37:03.002Z,22.83
2022-09-06T16:42:05.691Z,22.84
2022-09-06T16:47:08.358Z,22.76
2022-09-06T16:52:11.102Z,22.7
2022-09-06T16:57:13.819Z,22.57
2022-09-06T17:02:16.583Z,22.54
2022-09-06T17:07:19.487Z,22.37
2022-09-06T17:12:22.094Z,22.31
2022-09-06T17:17:29.709Z,22.2
2022-09-06T17:22:32.616Z,22.16
2022-09-06T17:27:35.120Z,22.07
2022-09-06T17:32:38.217Z,21.99
2022-09-06T17:37:40.865Z,21.94
2022-09-06T17:42:43.418Z,21.88
2022-09-06T17:47:46.289Z,21.79
2022-09-06T17:52:48.926Z,21.74
2022-09-06T17:57:51.524Z,21.67
2022-09-06T18:07:59.590Z,21.62
2022-09-06T18:13:02.267Z,21.6
2022-09-06T18:18:04.863Z,21.5
2022-09-06T18:23:07.472Z,21.41
2022-09-06T18:33:12.747Z,21.33
2022-09-06T18:38:15.490Z,21.34
2022-09-06T18:43:18.324Z,21.27
2022-09-06T18:48:20.962Z,21.21
2022-09-06T18:53:24.515Z,21.21
2022-09-06T18:58:27.185Z,21.17
2022-09-06T19:03:29.678Z,21.16
2022-09-06T19:08:32.415Z,21.07
2022-09-06T19:13:35.305Z,21.05
2022-09-06T19:18:37.875Z,20.99
2022-09-06T19:23:40.580Z,20.9
2022-09-06T19:28:43.156Z,20.84
2022-09-06T19:33:45.666Z,20.86
2022-09-06T19:39:04.918Z,20.84
2022-09-06T19:43:51.071Z,20.79
2022-09-06T19:48:53.520Z,20.78
2022-09-06T19:53:56.268Z,20.73
2022-09-06T19:58:59.252Z,20.68
2022-09-06T20:04:01.814Z,20.63
2022-09-06T20:09:04.506Z,20.6
2022-09-06T20:14:07.217Z,20.57
2022-09-06T20:19:09.796Z,20.54
2022-09-06T20:24:12.365Z,20.51
2022-09-06T20:29:14.903Z,20.47
2022-09-06T20:34:17.616Z,20.45
2022-09-06T20:39:20.281Z,20.42
2022-09-06T20:44:23.355Z,20.39
2022-09-06T20:54:31.349Z,20.3
2022-09-06T20:59:34.105Z,20.24
2022-09-06T21:04:37.078Z,20.22
2022-09-06T21:09:39.790Z,20.16
2022-09-06T21:14:42.390Z,20.11
2022-09-06T21:19:45.156Z,20.01
2022-09-06T21:24:47.628Z,19.98
2022-09-06T21:29:50.099Z,19.95
2022-09-06T21:34:52.430Z,19.93
2022-09-06T21:39:55.188Z,19.89
2022-09-06T21:44:57.753Z,19.87
2022-09-06T21:50:00.414Z,19.88
2022-09-06T21:55:03.036Z,19.87
2022-09-06T22:00:05.923Z,19.85
2022-09-06T22:05:08.520Z,19.84
2022-09-06T22:10:11.207Z,19.81
2022-09-06T22:15:13.929Z,19.79
2022-09-06T22:20:16.729Z,19.76
2022-09-06T22:25:19.468Z,19.71
2022-09-06T22:30:25.548Z,19.65
2022-09-06T22:35:24.596Z,19.56
2022-09-06T22:40:27.245Z,19.51
2022-09-06T22:45:29.777Z,19.42
2022-09-06T22:50:32.321Z,19.35
2022-09-06T22:55:35.114Z,19.32
2022-09-06T23:00:37.846Z,19.32
2022-09-06T23:05:40.620Z,19.33
2022-09-06T23:10:43.283Z,19.33
2022-09-06T23:15:45.978Z,19.28
2022-09-06T23:20:48.526Z,19.23
2022-09-06T23:25:51.227Z,19.17
2022-09-06T23:30:53.776Z,19.12
2022-09-06T23:35:56.606Z,19.1
2022-09-06T23:40:59.057Z,19.1
2022-09-06T23:46:01.662Z,19.09
2022-09-06T23:51:04.285Z,19.05
2022-09-06T23:56:06.799Z,19.08
